createdAt,value
2023-02-16T00:01:10.849Z,0
2023-02-16T00:02:26.993Z,0
2023-02-16T00:03:43.127Z,0
2023-02-16T00:04:59.263Z,0
2023-02-16T00:06:15.394Z,0
2023-02-16T00:07:31.529Z,0
2023-02-16T00:08:47.662Z,0
2023-02-16T00:10:03.809Z,0
2023-02-16T00:11:19.929Z,0
2023-02-16T00:12:36.086Z,0
2023-02-16T00:13:52.216Z,0
2023-02-16T00:15:08.348Z,0
2023-02-16T00:16:24.474Z,0
2023-02-16T00:17:40.611Z,0
2023-02-16T00:18:56.764Z,0
2023-02-16T00:20:12.897Z,0
2023-02-16T00:21:29.035Z,0
2023-02-16T00:22:45.163Z,0
2023-02-16T00:24:01.299Z,0
2023-02-16T00:25:17.439Z,0
2023-02-16T00:26:33.630Z,0
2023-02-16T00:27:48.877Z,0
2023-02-16T00:29:05.076Z,0
2023-02-16T00:30:20.283Z,0
2023-02-16T00:31:36.407Z,0
2023-02-16T00:32:52.547Z,0
2023-02-16T00:34:08.683Z,0
2023-02-16T00:35:24.831Z,0
2023-02-16T00:36:40.963Z,0
2023-02-16T00:37:57.091Z,0
2023-02-16T00:39:13.218Z,0
2023-02-16T00:40:29.353Z,0
2023-02-16T00:41:45.501Z,0
2023-02-16T00:43:01.631Z,0
2023-02-16T00:44:17.768Z,0
2023-02-16T00:45:33.897Z,0
2023-02-16T00:46:50.038Z,0
2023-02-16T00:48:06.175Z,0
2023-02-16T00:49:22.323Z,0
2023-02-16T00:50:38.459Z,0
2023-02-16T00:51:54.575Z,0
2023-02-16T00:53:10.722Z,0
2023-02-16T00:54:26.861Z,0
2023-02-16T00:55:43.004Z,0
2023-02-16T00:56:59.140Z,0
2023-02-16T00:58:15.261Z,0
2023-02-16T00:59:31.404Z,0
2023-02-16T01:00:47.555Z,0
2023-02-16T01:02:03.747Z,0
2023-02-16T01:03:18.985Z,0
2023-02-16T01:05:50.319Z,0
2023-02-16T01:07:06.454Z,0
2023-02-16T01:08:22.577Z,0
2023-02-16T01:09:38.707Z,0
2023-02-16T01:10:54.864Z,0
2023-02-16T01:12:10.990Z,0
2023-02-16T01:13:27.125Z,0
2023-02-16T01:14:43.257Z,0
2023-02-16T01:15:59.398Z,0
2023-02-16T01:17:15.540Z,0
2023-02-16T01:18:31.684Z,0
2023-02-16T01:19:47.804Z,0
2023-02-16T01:21:03.947Z,0
2023-02-16T01:22:20.075Z,0
2023-02-16T01:24:52.363Z,0
2023-02-16T01:26:08.493Z,0
2023-02-16T01:27:24.616Z,0
2023-02-16T01:28:40.752Z,0
2023-02-16T01:29:56.913Z,0
2023-02-16T01:31:13.045Z,0
2023-02-16T01:32:29.176Z,0
2023-02-16T01:33:45.313Z,0
2023-02-16T01:35:01.447Z,0
2023-02-16T01:36:17.651Z,0
2023-02-16T01:37:32.915Z,0
2023-02-16T01:38:48.120Z,0
2023-02-16T01:40:04.248Z,0
2023-02-16T01:41:20.379Z,0
2023-02-16T01:42:36.528Z,0
2023-02-16T01:43:52.647Z,0
2023-02-16T01:45:08.779Z,0
2023-02-16T01:46:24.931Z,0
2023-02-16T01:47:41.072Z,0
2023-02-16T01:48:57.202Z,0
2023-02-16T01:50:13.336Z,0
2023-02-16T01:52:45.622Z,0
2023-02-16T01:54:01.746Z,0
2023-02-16T01:55:17.875Z,0
2023-02-16T01:56:34.011Z,0
2023-02-16T01:57:50.147Z,0
2023-02-16T01:59:06.288Z,0
2023-02-16T02:00:22.433Z,0
2023-02-16T02:01:38.556Z,0
2023-02-16T02:02:54.694Z,0
2023-02-16T02:04:10.822Z,0
2023-02-16T02:05:26.984Z,0
2023-02-16T02:06:43.103Z,0
2023-02-16T02:07:59.240Z,0
2023-02-16T02:09:15.371Z,0
2023-02-16T02:10:31.572Z,0
2023-02-16T02:11:46.804Z,0
2023-02-16T02:13:03.002Z,0
2023-02-16T02:14:18.209Z,0
2023-02-16T02:15:34.350Z,0
2023-02-16T02:16:50.487Z,0
2023-02-16T02:18:06.621Z,0
2023-02-16T02:19:22.745Z,0
2023-02-16T02:20:38.882Z,0
2023-02-16T02:21:55.036Z,0
2023-02-16T02:23:11.164Z,0
2023-02-16T02:24:27.301Z,0
2023-02-16T02:25:43.439Z,0
2023-02-16T02:26:59.555Z,0
2023-02-16T02:28:15.703Z,0
2023-02-16T02:29:31.838Z,0
2023-02-16T02:30:47.982Z,0
2023-02-16T02:32:04.106Z,0
2023-02-16T02:33:20.242Z,0
2023-02-16T02:34:36.399Z,0
2023-02-16T02:35:52.525Z,0
2023-02-16T02:37:08.668Z,0
2023-02-16T02:38:24.800Z,0
2023-02-16T02:39:40.926Z,0
2023-02-16T02:40:57.071Z,0
2023-02-16T02:42:13.211Z,0
2023-02-16T02:43:29.338Z,0
2023-02-16T02:44:45.473Z,0
2023-02-16T02:46:01.661Z,0
2023-02-16T02:47:16.903Z,0
2023-02-16T02:48:32.111Z,0
2023-02-16T02:49:47.270Z,0
2023-02-16T02:51:03.385Z,0
2023-02-16T02:52:19.527Z,0
2023-02-16T02:53:35.665Z,0
2023-02-16T02:54:51.788Z,0
2023-02-16T02:56:07.945Z,0
2023-02-16T02:57:24.079Z,0
2023-02-16T02:58:40.206Z,0
2023-02-16T02:59:56.340Z,0
2023-02-16T03:01:12.468Z,0
2023-02-16T03:02:28.618Z,0
2023-02-16T03:03:44.752Z,0
2023-02-16T03:05:00.898Z,0
2023-02-16T03:06:17.025Z,0
2023-02-16T03:07:33.162Z,0
2023-02-16T03:08:49.302Z,0
2023-02-16T03:10:05.443Z,0
2023-02-16T03:11:21.564Z,0
2023-02-16T03:12:37.698Z,0
2023-02-16T03:13:53.833Z,0
2023-02-16T03:15:09.987Z,0
2023-02-16T03:16:26.125Z,0
2023-02-16T03:17:42.240Z,0
2023-02-16T03:18:58.375Z,0
2023-02-16T03:20:14.510Z,0
2023-02-16T03:21:30.661Z,0
2023-02-16T03:22:46.802Z,0
2023-02-16T03:24:02.928Z,0
2023-02-16T03:25:19.071Z,0
2023-02-16T03:26:35.193Z,0
2023-02-16T03:27:51.353Z,0
2023-02-16T03:29:07.470Z,0
2023-02-16T03:30:23.611Z,0
2023-02-16T03:31:39.747Z,0
2023-02-16T03:32:55.884Z,0
2023-02-16T03:34:12.031Z,0
2023-02-16T03:35:28.165Z,0
2023-02-16T03:36:44.343Z,0
2023-02-16T03:37:59.595Z,0
2023-02-16T03:39:14.797Z,0
2023-02-16T03:40:30.940Z,0
2023-02-16T03:41:47.066Z,0
2023-02-16T03:44:19.355Z,0
2023-02-16T03:45:35.482Z,0
2023-02-16T03:46:51.611Z,0
2023-02-16T03:48:07.739Z,0
2023-02-16T03:49:23.891Z,0
2023-02-16T03:50:40.022Z,0
2023-02-16T03:51:56.157Z,0
2023-02-16T03:53:12.304Z,0
2023-02-16T03:54:28.422Z,0
2023-02-16T03:55:44.563Z,0
2023-02-16T03:57:00.711Z,0
2023-02-16T03:58:16.853Z,0
2023-02-16T03:59:32.971Z,0
2023-02-16T04:00:49.107Z,0
2023-02-16T04:02:05.234Z,0
2023-02-16T04:03:21.402Z,0
2023-02-16T04:04:37.517Z,0
2023-02-16T04:05:53.668Z,0
2023-02-16T04:07:09.784Z,0
2023-02-16T04:08:25.935Z,0
2023-02-16T04:09:42.067Z,0
2023-02-16T04:10:58.257Z,0
2023-02-16T04:12:13.512Z,0
2023-02-16T04:13:28.717Z,0
2023-02-16T04:14:44.838Z,0
2023-02-16T04:16:00.982Z,0
2023-02-16T04:17:17.105Z,0
2023-02-16T04:18:33.255Z,0
2023-02-16T04:19:49.392Z,0
2023-02-16T04:21:05.521Z,0
2023-02-16T04:22:21.655Z,0
2023-02-16T04:23:37.795Z,0
2023-02-16T04:24:53.924Z,0
2023-02-16T04:26:10.070Z,0
2023-02-16T04:27:26.203Z,0
2023-02-16T04:28:42.337Z,0
2023-02-16T04:29:58.477Z,0
2023-02-16T04:31:14.604Z,0
2023-02-16T04:32:30.746Z,0
2023-02-16T04:33:46.902Z,0
2023-02-16T04:35:03.018Z,0
2023-02-16T04:36:19.161Z,0
2023-02-16T04:37:35.291Z,0
2023-02-16T04:38:51.437Z,0
2023-02-16T04:40:07.572Z,0
2023-02-16T04:41:23.711Z,0
2023-02-16T04:42:39.841Z,0
2023-02-16T04:43:55.961Z,0
2023-02-16T04:45:12.181Z,0
2023-02-16T04:46:27.423Z,0
2023-02-16T04:47:43.611Z,0
2023-02-16T04:48:58.814Z,0
2023-02-16T04:50:14.958Z,0
2023-02-16T04:51:31.085Z,0
2023-02-16T04:52:47.214Z,0
2023-02-16T04:54:03.352Z,0
2023-02-16T04:55:19.500Z,0
2023-02-16T04:56:35.640Z,0
2023-02-16T04:57:51.762Z,0
2023-02-16T04:59:07.891Z,0
2023-02-16T05:00:24.040Z,0
2023-02-16T05:01:40.173Z,0
2023-02-16T05:02:56.308Z,0
2023-02-16T05:04:12.441Z,0
2023-02-16T05:05:28.581Z,0
2023-02-16T05:06:44.713Z,0
2023-02-16T05:08:00.867Z,0
2023-02-16T05:09:16.992Z,0
2023-02-16T05:10:33.132Z,0
2023-02-16T05:11:49.268Z,0
2023-02-16T05:13:05.383Z,0
2023-02-16T05:14:21.538Z,0
2023-02-16T05:15:37.672Z,0
2023-02-16T05:16:53.811Z,0
2023-02-16T05:18:09.946Z,0
2023-02-16T05:19:26.067Z,0
2023-02-16T05:20:42.272Z,0
2023-02-16T05:21:57.511Z,0
2023-02-16T05:23:12.790Z,0
2023-02-16T05:24:28.032Z,0
2023-02-16T05:25:43.228Z,0
2023-02-16T05:26:58.393Z,0
2023-02-16T05:28:14.521Z,0
2023-02-16T05:29:30.646Z,0
2023-02-16T05:30:46.792Z,0
2023-02-16T05:32:02.911Z,0
2023-02-16T05:33:19.066Z,0
2023-02-16T05:34:35.207Z,0
2023-02-16T05:35:51.326Z,0
2023-02-16T05:37:07.467Z,0
2023-02-16T05:38:23.606Z,0
2023-02-16T05:39:39.748Z,0
2023-02-16T05:40:55.878Z,0
2023-02-16T05:42:12.022Z,0
2023-02-16T05:43:28.141Z,0
2023-02-16T05:44:44.278Z,0
2023-02-16T05:46:00.437Z,0
2023-02-16T05:47:16.567Z,0
2023-02-16T05:48:32.690Z,0
2023-02-16T05:49:48.833Z,0
2023-02-16T05:51:04.967Z,0
2023-02-16T05:52:21.102Z,0
2023-02-16T05:53:37.240Z,0
2023-02-16T05:54:53.383Z,0
2023-02-16T05:56:09.505Z,0
2023-02-16T05:57:25.645Z,0
2023-02-16T05:58:41.785Z,0
2023-02-16T05:59:57.928Z,0
2023-02-16T06:01:14.055Z,0
2023-02-16T06:02:30.195Z,0
2023-02-16T06:03:46.318Z,4
2023-02-16T06:05:02.472Z,4
2023-02-16T06:06:18.594Z,0
2023-02-16T06:07:34.735Z,4
2023-02-16T06:08:50.861Z,4
2023-02-16T06:10:07.005Z,8
2023-02-16T06:11:23.144Z,8
2023-02-16T06:12:39.292Z,8
2023-02-16T06:13:55.467Z,12
2023-02-16T06:15:10.688Z,12
2023-02-16T06:16:26.821Z,20
2023-02-16T06:17:42.956Z,20
2023-02-16T06:18:59.089Z,28
2023-02-16T06:20:15.228Z,32
2023-02-16T06:21:31.360Z,32
2023-02-16T06:22:47.499Z,40
2023-02-16T06:24:03.645Z,48
2023-02-16T06:25:19.777Z,52
2023-02-16T06:26:35.896Z,60
2023-02-16T06:27:52.046Z,68
2023-02-16T06:29:08.191Z,76
2023-02-16T06:30:24.329Z,88
2023-02-16T06:31:40.452Z,92
2023-02-16T06:32:56.587Z,100
2023-02-16T06:34:12.712Z,112
2023-02-16T06:35:28.873Z,124
2023-02-16T06:36:44.997Z,136
2023-02-16T06:38:01.142Z,144
2023-02-16T06:39:17.272Z,156
2023-02-16T06:40:33.402Z,168
2023-02-16T06:41:49.542Z,184
2023-02-16T06:43:05.675Z,200
2023-02-16T06:44:21.965Z,220
2023-02-16T06:45:38.210Z,240
2023-02-16T06:46:54.351Z,260
2023-02-16T06:48:10.509Z,268
2023-02-16T06:49:26.640Z,276
2023-02-16T06:50:42.770Z,276
2023-02-16T06:51:58.904Z,612
2023-02-16T06:53:15.027Z,848
2023-02-16T06:54:31.187Z,936
2023-02-16T06:55:47.317Z,956
2023-02-16T06:57:03.453Z,972
2023-02-16T06:58:19.576Z,988
2023-02-16T06:59:35.717Z,1008
2023-02-16T07:00:51.858Z,1028
2023-02-16T07:02:07.988Z,1052
2023-02-16T07:03:24.135Z,1072
2023-02-16T07:04:40.270Z,1100
2023-02-16T07:05:56.400Z,1140
2023-02-16T07:07:12.536Z,1192
2023-02-16T07:08:28.676Z,1260
2023-02-16T07:09:44.816Z,1312
2023-02-16T07:11:00.953Z,1348
2023-02-16T07:12:17.080Z,1384
2023-02-16T07:13:33.224Z,1428
2023-02-16T07:14:49.357Z,1460
2023-02-16T07:16:05.496Z,1508
2023-02-16T07:17:21.636Z,1548
2023-02-16T07:18:37.758Z,1608
2023-02-16T07:19:53.912Z,1668
2023-02-16T07:21:10.044Z,1740
2023-02-16T07:22:26.167Z,1816
2023-02-16T07:23:42.305Z,1888
2023-02-16T07:24:58.452Z,1944
2023-02-16T07:26:14.599Z,2004
2023-02-16T07:27:30.734Z,2060
2023-02-16T07:28:46.848Z,2108
2023-02-16T07:30:02.989Z,2152
2023-02-16T07:31:19.128Z,2196
2023-02-16T07:32:35.334Z,2248
2023-02-16T07:33:50.530Z,2296
2023-02-16T07:35:05.686Z,2328
2023-02-16T07:36:21.832Z,2360
2023-02-16T07:37:37.960Z,2380
2023-02-16T07:38:54.096Z,2416
2023-02-16T07:40:10.242Z,2452
2023-02-16T07:41:26.373Z,2480
2023-02-16T07:42:42.524Z,2520
2023-02-16T07:43:58.657Z,2552
2023-02-16T07:45:14.783Z,2584
2023-02-16T07:46:30.920Z,2640
2023-02-16T07:47:47.044Z,2724
2023-02-16T07:49:03.197Z,2864
2023-02-16T07:50:19.335Z,3192
2023-02-16T07:51:35.472Z,3812
2023-02-16T07:52:51.602Z,4436
2023-02-16T07:54:07.738Z,4752
2023-02-16T07:55:23.870Z,4932
2023-02-16T07:56:40.014Z,4736
2023-02-16T07:57:56.142Z,4580
2023-02-16T07:59:12.278Z,4712
2023-02-16T08:00:28.415Z,4824
2023-02-16T08:01:44.555Z,4540
2023-02-16T08:03:00.684Z,3732
2023-02-16T08:04:16.830Z,3456
2023-02-16T08:05:32.963Z,3276
2023-02-16T08:06:49.093Z,2996
2023-02-16T08:08:05.239Z,2884
2023-02-16T08:09:21.380Z,2764
2023-02-16T08:10:37.509Z,2780
2023-02-16T08:11:53.638Z,2916
2023-02-16T08:13:09.775Z,3204
2023-02-16T08:14:25.914Z,3052
2023-02-16T08:15:42.052Z,2856
2023-02-16T08:16:58.192Z,2808
2023-02-16T08:18:14.323Z,2416
2023-02-16T08:19:30.462Z,2840
2023-02-16T08:20:46.603Z,2736
2023-02-16T08:22:02.789Z,2392
2023-02-16T08:23:18.040Z,2264
2023-02-16T08:24:33.232Z,2488
2023-02-16T08:25:49.380Z,2540
2023-02-16T08:27:05.504Z,2740
2023-02-16T08:28:21.642Z,3072
2023-02-16T08:29:37.766Z,3468
2023-02-16T08:30:53.930Z,3576
2023-02-16T08:32:10.066Z,3652
2023-02-16T08:33:26.190Z,3816
2023-02-16T08:34:42.327Z,3848
2023-02-16T08:35:58.453Z,3828
2023-02-16T08:37:14.594Z,3976
2023-02-16T08:38:30.746Z,4092
2023-02-16T08:39:46.861Z,3944
2023-02-16T08:41:03.011Z,4016
2023-02-16T08:42:19.145Z,3932
2023-02-16T08:43:35.279Z,3848
2023-02-16T08:44:51.423Z,3776
2023-02-16T08:46:07.556Z,3920
2023-02-16T08:47:23.692Z,3976
2023-02-16T08:48:39.820Z,3972
2023-02-16T08:49:55.964Z,3988
2023-02-16T08:51:12.091Z,3952
2023-02-16T08:52:28.232Z,3948
2023-02-16T08:53:44.357Z,3928
2023-02-16T08:55:00.501Z,3720
2023-02-16T08:56:16.706Z,3468
2023-02-16T08:57:31.939Z,3512
2023-02-16T08:58:47.144Z,3632
2023-02-16T09:00:03.292Z,4128
2023-02-16T09:01:19.420Z,4180
2023-02-16T09:02:35.561Z,4380
2023-02-16T09:03:51.688Z,4652
2023-02-16T09:05:07.836Z,4200
2023-02-16T09:06:23.971Z,4728
2023-02-16T09:07:40.115Z,5032
2023-02-16T09:08:56.250Z,4384
2023-02-16T09:10:12.385Z,4020
2023-02-16T09:11:28.508Z,4284
2023-02-16T09:12:44.657Z,4712
2023-02-16T09:14:00.804Z,5156
2023-02-16T09:15:16.932Z,4792
2023-02-16T09:16:33.061Z,5012
2023-02-16T09:17:49.187Z,5416
2023-02-16T09:19:05.350Z,5480
2023-02-16T09:20:21.466Z,6100
2023-02-16T09:21:37.613Z,5356
2023-02-16T09:22:53.748Z,6536
2023-02-16T09:24:09.882Z,6256
2023-02-16T09:25:26.034Z,7084
2023-02-16T09:26:42.168Z,7196
2023-02-16T09:27:58.301Z,6700
2023-02-16T09:29:14.425Z,6824
2023-02-16T09:30:30.621Z,7508
2023-02-16T09:31:45.853Z,7220
2023-02-16T09:33:01.057Z,5884
2023-02-16T09:34:17.208Z,5068
2023-02-16T09:35:33.336Z,6780
2023-02-16T09:36:49.483Z,6728
2023-02-16T09:38:05.610Z,4584
2023-02-16T09:39:21.745Z,4008
2023-02-16T09:40:37.888Z,5504
2023-02-16T09:41:54.031Z,4148
2023-02-16T09:43:10.151Z,3464
2023-02-16T09:44:26.283Z,3464
2023-02-16T09:45:42.000Z,4364
2023-02-16T09:46:58.565Z,7928
2023-02-16T09:48:14.713Z,6656
2023-02-16T09:49:30.846Z,5340
2023-02-16T09:50:46.962Z,4928
2023-02-16T09:52:03.096Z,5740
2023-02-16T09:53:19.229Z,6716
2023-02-16T09:54:35.383Z,8528
2023-02-16T09:55:51.514Z,7224
2023-02-16T09:57:07.661Z,5488
2023-02-16T09:58:23.786Z,5216
2023-02-16T09:59:39.913Z,5624
2023-02-16T10:00:56.076Z,6024
2023-02-16T10:02:12.207Z,5924
2023-02-16T10:03:28.334Z,5540
2023-02-16T10:04:44.523Z,4032
2023-02-16T10:05:59.757Z,4136
2023-02-16T10:07:14.962Z,6944
2023-02-16T10:08:30.115Z,9692
2023-02-16T10:09:46.278Z,6912
2023-02-16T10:11:02.404Z,5668
2023-02-16T10:12:18.539Z,4956
2023-02-16T10:13:34.662Z,5036
2023-02-16T10:14:50.809Z,6120
2023-02-16T10:16:06.950Z,6476
2023-02-16T10:17:23.080Z,7280
2023-02-16T10:18:39.216Z,7704
2023-02-16T10:19:55.348Z,7476
2023-02-16T10:21:11.475Z,5752
2023-02-16T10:22:27.624Z,5348
2023-02-16T10:23:43.766Z,5104
2023-02-16T10:24:59.891Z,4980
2023-02-16T10:26:16.027Z,4732
2023-02-16T10:27:32.169Z,4504
2023-02-16T10:28:48.318Z,4700
2023-02-16T10:30:04.448Z,5816
2023-02-16T10:31:20.579Z,6556
2023-02-16T10:32:36.703Z,8936
2023-02-16T10:33:52.840Z,10188
2023-02-16T10:35:08.994Z,6068
2023-02-16T10:36:25.117Z,5784
2023-02-16T10:37:41.252Z,5844
2023-02-16T10:38:57.389Z,5868
2023-02-16T10:40:13.531Z,6136
2023-02-16T10:41:29.679Z,7212
2023-02-16T10:42:45.808Z,7020
2023-02-16T10:44:01.930Z,7104
2023-02-16T10:45:18.072Z,9624
2023-02-16T10:46:34.216Z,6056
2023-02-16T10:47:50.348Z,5476
2023-02-16T10:49:06.488Z,6340
2023-02-16T10:50:22.619Z,5588
2023-02-16T10:51:38.749Z,4620
2023-02-16T10:52:54.891Z,4456
2023-02-16T10:54:11.031Z,4460
2023-02-16T10:55:27.239Z,5416
2023-02-16T10:56:42.492Z,5092
2023-02-16T10:57:57.687Z,5792
2023-02-16T10:59:13.822Z,7824
2023-02-16T11:00:29.967Z,6628
2023-02-16T11:01:46.089Z,7284
2023-02-16T11:03:02.226Z,8308
2023-02-16T11:04:18.383Z,7128
2023-02-16T11:05:34.509Z,5956
2023-02-16T11:06:50.642Z,7632
2023-02-16T11:08:06.773Z,11060
2023-02-16T11:09:22.913Z,10868
2023-02-16T11:10:39.055Z,11740
2023-02-16T11:11:55.198Z,11584
2023-02-16T11:13:11.317Z,13768
2023-02-16T11:14:27.460Z,11852
2023-02-16T11:15:43.593Z,14696
2023-02-16T11:16:59.742Z,10492
2023-02-16T11:18:15.868Z,8292
2023-02-16T11:19:32.014Z,8084
2023-02-16T11:20:48.148Z,8092
2023-02-16T11:22:04.281Z,6772
2023-02-16T11:23:20.429Z,5972
2023-02-16T11:24:36.560Z,6260
2023-02-16T11:25:52.690Z,10020
2023-02-16T11:27:08.819Z,9448
2023-02-16T11:28:24.964Z,12304
2023-02-16T11:29:41.163Z,8564
2023-02-16T11:30:56.406Z,4968
2023-02-16T11:32:11.609Z,4728
2023-02-16T11:33:27.749Z,4920
2023-02-16T11:34:43.889Z,4964
2023-02-16T11:36:00.018Z,4712
2023-02-16T11:37:16.154Z,4512
2023-02-16T11:38:32.283Z,4252
2023-02-16T11:39:48.428Z,4124
2023-02-16T11:41:04.573Z,3948
2023-02-16T11:42:20.695Z,3944
2023-02-16T11:43:36.825Z,4048
2023-02-16T11:44:52.966Z,4032
2023-02-16T11:46:09.121Z,4016
2023-02-16T11:47:25.249Z,4064
2023-02-16T11:48:41.376Z,4080
2023-02-16T11:49:57.505Z,4016
2023-02-16T11:51:13.634Z,3836
2023-02-16T11:52:29.794Z,3716
2023-02-16T11:53:45.930Z,3684
2023-02-16T11:55:02.062Z,3624
2023-02-16T11:56:18.200Z,3548
2023-02-16T11:57:34.330Z,3504
2023-02-16T11:58:50.484Z,3520
2023-02-16T12:00:06.598Z,3400
2023-02-16T12:01:22.739Z,3176
2023-02-16T12:02:38.868Z,2960
2023-02-16T12:03:55.073Z,2812
2023-02-16T12:05:10.302Z,2756
2023-02-16T12:06:26.504Z,2780
2023-02-16T12:07:42.691Z,2848
2023-02-16T12:08:57.898Z,2900
2023-02-16T12:10:14.023Z,3024
2023-02-16T12:11:30.166Z,3168
2023-02-16T12:12:46.305Z,3176
2023-02-16T12:14:02.425Z,3148
2023-02-16T12:15:18.587Z,3168
2023-02-16T12:16:34.711Z,3172
2023-02-16T12:17:50.847Z,3156
2023-02-16T12:19:06.981Z,3124
2023-02-16T12:20:23.106Z,3060
2023-02-16T12:21:39.264Z,2992
2023-02-16T12:22:55.402Z,2920
2023-02-16T12:24:11.536Z,2868
2023-02-16T12:25:27.663Z,2836
2023-02-16T12:26:43.788Z,2800
2023-02-16T12:27:59.939Z,2764
2023-02-16T12:29:16.084Z,2780
2023-02-16T12:30:32.215Z,2800
2023-02-16T12:31:48.348Z,2816
2023-02-16T12:33:04.477Z,2844
2023-02-16T12:34:20.629Z,2784
2023-02-16T12:35:36.758Z,2584
2023-02-16T12:36:52.892Z,2408
2023-02-16T12:38:09.019Z,2336
2023-02-16T12:39:25.154Z,2304
2023-02-16T12:40:41.359Z,2276
2023-02-16T12:41:56.574Z,2204
2023-02-16T12:43:11.722Z,2112
2023-02-16T12:44:27.871Z,2028
2023-02-16T12:45:44.003Z,2000
2023-02-16T12:47:00.128Z,2064
2023-02-16T12:48:16.280Z,2224
2023-02-16T12:49:32.395Z,2392
2023-02-16T12:50:48.553Z,2504
2023-02-16T12:52:04.694Z,2552
2023-02-16T12:53:20.809Z,2572
2023-02-16T12:54:36.962Z,2572
2023-02-16T12:55:53.089Z,2528
2023-02-16T12:57:09.237Z,2432
2023-02-16T12:58:25.358Z,2312
2023-02-16T12:59:41.500Z,2240
2023-02-16T13:00:57.631Z,2216
2023-02-16T13:02:13.775Z,2216
2023-02-16T13:03:29.925Z,2260
2023-02-16T13:04:46.045Z,2328
2023-02-16T13:06:02.171Z,2400
2023-02-16T13:07:18.312Z,2528
2023-02-16T13:08:34.444Z,2628
2023-02-16T13:09:50.594Z,2792
2023-02-16T13:11:06.720Z,2916
2023-02-16T13:12:22.864Z,3076
2023-02-16T13:13:38.989Z,2996
2023-02-16T13:14:55.125Z,2920
2023-02-16T13:16:11.286Z,2784
2023-02-16T13:17:27.409Z,2596
2023-02-16T13:18:43.549Z,2460
2023-02-16T13:19:59.682Z,2268
2023-02-16T13:21:15.811Z,2208
2023-02-16T13:22:31.953Z,2248
2023-02-16T13:23:48.089Z,2108
2023-02-16T13:25:04.230Z,2000
2023-02-16T13:26:20.351Z,1968
2023-02-16T13:27:36.488Z,1908
2023-02-16T13:28:52.633Z,1872
2023-02-16T13:30:08.825Z,1888
2023-02-16T13:31:24.077Z,2004
2023-02-16T13:32:39.287Z,2164
2023-02-16T13:33:55.412Z,2288
2023-02-16T13:35:11.555Z,2376
2023-02-16T13:36:27.684Z,2372
2023-02-16T13:37:43.813Z,2268
2023-02-16T13:38:59.957Z,2136
2023-02-16T13:40:16.000Z,2168
2023-02-16T13:41:32.217Z,2272
2023-02-16T13:42:48.361Z,2272
2023-02-16T13:44:04.498Z,2316
2023-02-16T13:45:20.636Z,2320
2023-02-16T13:46:36.767Z,2288
2023-02-16T13:47:52.907Z,2296
2023-02-16T13:49:09.045Z,2100
2023-02-16T13:50:25.181Z,1908
2023-02-16T13:51:41.313Z,1820
2023-02-16T13:52:57.445Z,1724
2023-02-16T13:54:13.589Z,1620
2023-02-16T13:55:29.725Z,1556
2023-02-16T13:56:45.845Z,1632
2023-02-16T13:58:01.993Z,1616
2023-02-16T13:59:18.128Z,1564
2023-02-16T14:00:34.263Z,1604
2023-02-16T14:01:50.396Z,1648
2023-02-16T14:03:06.539Z,1648
2023-02-16T14:04:22.751Z,1676
2023-02-16T14:05:37.972Z,1716
2023-02-16T14:06:53.188Z,1812
2023-02-16T14:08:09.324Z,1900
2023-02-16T14:09:25.471Z,1808
2023-02-16T14:10:41.606Z,1616
2023-02-16T14:11:57.734Z,1420
2023-02-16T14:13:13.865Z,1280
2023-02-16T14:14:30.011Z,1224
2023-02-16T14:15:46.143Z,1200
2023-02-16T14:17:02.276Z,1180
2023-02-16T14:18:18.404Z,1576
2023-02-16T14:19:34.538Z,1696
2023-02-16T14:20:50.696Z,1716
2023-02-16T14:22:06.830Z,1724
2023-02-16T14:23:22.952Z,1788
2023-02-16T14:24:39.086Z,1812
2023-02-16T14:25:55.232Z,1828
2023-02-16T14:27:11.383Z,1888
2023-02-16T14:28:27.508Z,1940
2023-02-16T14:29:43.645Z,1980
2023-02-16T14:30:59.781Z,2076
2023-02-16T14:32:15.901Z,2132
2023-02-16T14:33:32.059Z,2112
2023-02-16T14:34:48.188Z,2088
2023-02-16T14:36:04.320Z,2040
2023-02-16T14:37:20.465Z,1968
2023-02-16T14:38:36.649Z,1888
2023-02-16T14:39:51.896Z,1816
2023-02-16T14:41:08.073Z,1768
2023-02-16T14:42:23.278Z,1724
2023-02-16T14:43:39.426Z,1692
2023-02-16T14:46:11.693Z,1620
2023-02-16T14:47:27.830Z,1572
2023-02-16T14:48:43.963Z,1544
2023-02-16T14:50:00.119Z,1544
2023-02-16T14:51:16.251Z,1596
2023-02-16T14:52:32.381Z,1684
2023-02-16T14:53:48.524Z,1744
2023-02-16T14:55:04.652Z,1784
2023-02-16T14:56:20.792Z,1784
2023-02-16T14:57:36.922Z,1772
2023-02-16T14:58:53.059Z,1728
2023-02-16T15:00:09.202Z,1640
2023-02-16T15:01:25.326Z,1564
2023-02-16T15:02:41.471Z,1520
2023-02-16T15:03:57.621Z,1480
2023-02-16T15:05:13.749Z,1424
2023-02-16T15:06:29.877Z,1372
2023-02-16T15:07:46.002Z,1348
2023-02-16T15:09:02.150Z,1384
2023-02-16T15:10:18.292Z,1400
2023-02-16T15:11:34.421Z,1396
2023-02-16T15:12:50.557Z,1400
2023-02-16T15:14:06.761Z,1404
2023-02-16T15:15:22.015Z,1408
2023-02-16T15:16:37.226Z,860
2023-02-16T15:17:53.350Z,868
2023-02-16T15:19:09.508Z,872
2023-02-16T15:20:25.634Z,868
2023-02-16T15:21:41.761Z,852
2023-02-16T15:22:57.901Z,844
2023-02-16T15:24:14.038Z,832
2023-02-16T15:25:30.193Z,828
2023-02-16T15:26:46.318Z,816
2023-02-16T15:28:02.450Z,788
2023-02-16T15:29:18.584Z,752
2023-02-16T15:30:34.719Z,700
2023-02-16T15:31:50.867Z,648
2023-02-16T15:33:06.999Z,560
2023-02-16T15:34:23.121Z,472
2023-02-16T15:35:39.260Z,408
2023-02-16T15:36:55.401Z,384
2023-02-16T15:38:11.547Z,372
2023-02-16T15:39:27.687Z,364
2023-02-16T15:40:43.804Z,360
2023-02-16T15:41:59.953Z,352
2023-02-16T15:43:16.067Z,328
2023-02-16T15:44:32.232Z,312
2023-02-16T15:45:48.353Z,284
2023-02-16T15:47:04.484Z,268
2023-02-16T15:48:20.682Z,276
2023-02-16T15:49:35.921Z,272
2023-02-16T15:50:51.127Z,252
2023-02-16T15:52:06.270Z,220
2023-02-16T15:53:22.437Z,184
2023-02-16T15:54:38.567Z,164
2023-02-16T15:55:54.692Z,140
2023-02-16T15:57:10.830Z,124
2023-02-16T15:59:43.111Z,116
2023-02-16T16:00:59.242Z,112
2023-02-16T16:02:15.367Z,108
2023-02-16T16:03:31.514Z,112
2023-02-16T16:04:47.637Z,108
2023-02-16T16:06:03.786Z,116
2023-02-16T16:07:19.915Z,132
2023-02-16T16:08:36.065Z,128
2023-02-16T16:09:52.199Z,116
2023-02-16T16:11:08.319Z,112
2023-02-16T16:12:24.463Z,116
2023-02-16T16:13:40.603Z,100
2023-02-16T16:14:56.738Z,88
2023-02-16T16:16:12.864Z,92
2023-02-16T16:17:29.009Z,96
2023-02-16T16:18:45.145Z,108
2023-02-16T16:20:01.287Z,100
2023-02-16T16:22:33.561Z,60
2023-02-16T16:23:49.695Z,48
2023-02-16T16:25:05.823Z,36
2023-02-16T16:26:21.958Z,36
2023-02-16T16:27:38.093Z,32
2023-02-16T16:28:54.232Z,36
2023-02-16T16:30:10.364Z,36
2023-02-16T16:31:26.511Z,36
2023-02-16T16:32:42.639Z,36
2023-02-16T16:33:58.771Z,32
2023-02-16T16:35:14.910Z,24
2023-02-16T16:36:31.039Z,16
2023-02-16T16:37:47.187Z,12
2023-02-16T16:39:03.384Z,8
2023-02-16T16:40:18.623Z,8
2023-02-16T16:41:33.825Z,4
2023-02-16T16:42:49.957Z,0
2023-02-16T16:44:06.092Z,0
2023-02-16T16:45:22.229Z,4
2023-02-16T16:46:38.370Z,4
2023-02-16T16:47:54.518Z,0
2023-02-16T16:49:10.651Z,0
2023-02-16T16:50:26.773Z,0
2023-02-16T16:51:42.906Z,0
2023-02-16T16:52:59.052Z,0
2023-02-16T16:54:15.196Z,0
2023-02-16T16:55:31.318Z,0
2023-02-16T16:56:47.467Z,0
2023-02-16T16:58:03.585Z,0
2023-02-16T16:59:19.729Z,0
2023-02-16T17:00:35.874Z,0
2023-02-16T17:01:52.003Z,0
2023-02-16T17:03:08.152Z,0
2023-02-16T17:04:24.278Z,0
2023-02-16T17:05:40.412Z,0
2023-02-16T17:06:56.553Z,0
2023-02-16T17:08:12.696Z,0
2023-02-16T17:09:28.835Z,0
2023-02-16T17:10:44.966Z,0
2023-02-16T17:12:01.087Z,0
2023-02-16T17:13:17.301Z,0
2023-02-16T17:14:32.528Z,0
2023-02-16T17:15:48.718Z,0
2023-02-16T17:17:03.942Z,0
2023-02-16T17:18:20.063Z,0
2023-02-16T17:19:36.203Z,0
2023-02-16T17:20:52.339Z,0
2023-02-16T17:22:08.471Z,0
2023-02-16T17:23:24.626Z,0
2023-02-16T17:24:40.758Z,0
2023-02-16T17:25:56.877Z,0
2023-02-16T17:27:13.019Z,0
2023-02-16T17:28:29.139Z,0
2023-02-16T17:29:45.287Z,0
2023-02-16T17:31:01.420Z,0
2023-02-16T17:32:17.560Z,0
2023-02-16T17:33:33.699Z,0
2023-02-16T17:34:49.838Z,0
2023-02-16T17:36:05.978Z,0
2023-02-16T17:37:22.116Z,0
2023-02-16T17:38:38.234Z,0
2023-02-16T17:39:54.375Z,0
2023-02-16T17:41:10.513Z,0
2023-02-16T17:42:26.651Z,0
2023-02-16T17:43:42.787Z,0
2023-02-16T17:44:58.927Z,0
2023-02-16T17:46:15.066Z,0
2023-02-16T17:47:31.181Z,0
2023-02-16T17:48:47.404Z,0
2023-02-16T17:50:02.632Z,0
2023-02-16T17:51:17.836Z,0